createdAt,value
2019-05-16T00:00:19.321Z,20.00
2019-05-16T00:01:19.539Z,20.00
2019-05-16T00:02:18.993Z,20.00
2019-05-16T00:03:18.991Z,20.00
2019-05-16T00:04:19.302Z,20.00
2019-05-16T00:05:18.965Z,20.00
2019-05-16T00:06:18.944Z,20.00
2019-05-16T00:07:19.323Z,20.00
2019-05-16T00:08:18.934Z,20.00
2019-05-16T00:09:19.637Z,20.00
2019-05-16T00:10:18.957Z,20.00
2019-05-16T00:11:18.902Z,20.00
2019-05-16T00:12:18.894Z,16.00
2019-05-16T00:13:18.882Z,20.00
2019-05-16T00:14:18.920Z,20.00
2019-05-16T00:15:18.853Z,20.00
2019-05-16T00:16:19.173Z,20.00
2019-05-16T00:17:19.006Z,20.00
2019-05-16T00:18:18.831Z,20.00
2019-05-16T00:19:18.813Z,20.00
2019-05-16T00:20:19.226Z,20.00
2019-05-16T00:21:18.800Z,20.00
2019-05-16T00:22:18.822Z,20.00
2019-05-16T00:23:18.773Z,20.00
2019-05-16T00:24:18.794Z,20.00
2019-05-16T00:25:18.753Z,20.00
2019-05-16T00:26:19.804Z,20.00
2019-05-16T00:27:18.751Z,20.00
2019-05-16T00:28:19.070Z,20.00
2019-05-16T00:29:18.712Z,20.00
2019-05-16T00:30:18.702Z,20.00
2019-05-16T00:31:18.692Z,20.00
2019-05-16T00:32:19.197Z,20.00
2019-05-16T00:33:18.680Z,20.00
2019-05-16T00:34:18.935Z,20.00
2019-05-16T00:35:18.653Z,20.00
2019-05-16T00:36:19.053Z,20.00
2019-05-16T00:37:18.629Z,20.00
2019-05-16T00:38:18.613Z,20.00
2019-05-16T00:39:18.876Z,20.00
2019-05-16T00:40:19.038Z,20.00
2019-05-16T00:41:18.590Z,20.00
2019-05-16T00:42:18.583Z,20.00
2019-05-16T00:43:18.581Z,20.00
2019-05-16T00:44:18.935Z,20.00
2019-05-16T00:45:18.785Z,20.00
2019-05-16T00:46:20.047Z,20.00
2019-05-16T00:47:18.521Z,20.00
2019-05-16T00:48:18.522Z,20.00
2019-05-16T00:49:18.776Z,20.00
2019-05-16T00:50:18.599Z,20.00
2019-05-16T00:51:18.537Z,20.00
2019-05-16T00:52:18.805Z,20.00
2019-05-16T00:53:18.460Z,20.00
2019-05-16T00:54:18.691Z,20.00
2019-05-16T00:55:18.443Z,20.00
2019-05-16T00:56:18.800Z,20.00
2019-05-16T00:57:18.910Z,20.00
2019-05-16T00:58:19.024Z,20.00
2019-05-16T00:59:18.677Z,20.00
2019-05-16T01:00:19.341Z,20.00
2019-05-16T01:01:18.922Z,20.00
2019-05-16T01:02:18.390Z,16.00
2019-05-16T01:03:20.121Z,16.00
2019-05-16T01:04:18.396Z,20.00
2019-05-16T01:05:19.116Z,20.00
2019-05-16T01:06:22.833Z,20.00
2019-05-16T01:07:18.692Z,20.00
2019-05-16T01:08:19.083Z,20.00
2019-05-16T01:09:18.811Z,20.00
2019-05-16T01:10:18.512Z,20.00
2019-05-16T01:11:18.851Z,20.00
2019-05-16T01:12:18.270Z,20.00
2019-05-16T01:13:19.129Z,16.00
2019-05-16T01:14:18.249Z,16.00
2019-05-16T01:15:18.522Z,20.00
2019-05-16T01:16:18.721Z,16.00
2019-05-16T01:17:18.357Z,16.00
2019-05-16T01:18:18.721Z,20.00
2019-05-16T01:19:18.673Z,20.00
2019-05-16T01:20:19.223Z,20.00
2019-05-16T01:21:19.600Z,20.00
2019-05-16T01:22:18.669Z,20.00
2019-05-16T01:23:18.415Z,20.00
2019-05-16T01:24:18.776Z,20.00
2019-05-16T01:25:19.474Z,20.00
2019-05-16T01:26:18.712Z,20.00
2019-05-16T01:27:18.568Z,20.00
2019-05-16T01:28:18.271Z,20.00
2019-05-16T01:29:18.859Z,20.00
2019-05-16T01:30:18.696Z,20.00
2019-05-16T01:31:19.238Z,20.00
2019-05-16T01:32:18.978Z,20.00
2019-05-16T01:33:19.313Z,20.00
2019-05-16T01:34:19.356Z,20.00
2019-05-16T01:35:18.864Z,20.00
2019-05-16T01:36:31.875Z,20.00
2019-05-16T01:37:18.996Z,20.00
2019-05-16T01:38:18.228Z,20.00
2019-05-16T01:39:18.305Z,20.00
2019-05-16T01:40:18.917Z,20.00
2019-05-16T01:41:18.237Z,20.00
2019-05-16T01:42:18.443Z,20.00
2019-05-16T01:43:18.074Z,16.00
2019-05-16T01:44:18.415Z,20.00
2019-05-16T01:45:18.852Z,16.00
2019-05-16T01:46:18.256Z,20.00
2019-05-16T01:47:18.359Z,16.00
2019-05-16T01:48:19.177Z,20.00
2019-05-16T01:49:18.733Z,20.00
2019-05-16T01:50:18.197Z,20.00
2019-05-16T01:51:18.466Z,20.00
2019-05-16T01:52:17.963Z,20.00
2019-05-16T01:53:18.161Z,20.00
2019-05-16T01:54:18.045Z,20.00
2019-05-16T01:55:18.703Z,20.00
2019-05-16T01:56:18.014Z,20.00
2019-05-16T01:57:18.217Z,20.00
2019-05-16T01:58:19.809Z,20.00
2019-05-16T01:59:18.188Z,20.00
2019-05-16T02:01:34.034Z,20.00
2019-05-16T02:02:33.996Z,20.00
2019-05-16T02:03:34.024Z,20.00
2019-05-16T02:04:34.263Z,20.00
2019-05-16T02:05:33.954Z,20.00
2019-05-16T02:06:47.336Z,20.00
2019-05-16T02:07:34.954Z,20.00
2019-05-16T02:08:33.924Z,20.00
2019-05-16T02:09:33.974Z,20.00
2019-05-16T02:10:33.902Z,20.00
2019-05-16T02:11:34.190Z,20.00
2019-05-16T02:12:33.882Z,20.00
2019-05-16T02:13:35.516Z,20.00
2019-05-16T02:14:33.871Z,20.00
2019-05-16T02:15:33.923Z,20.00
2019-05-16T02:16:33.869Z,20.00
2019-05-16T02:17:33.843Z,20.00
2019-05-16T02:18:34.105Z,20.00
2019-05-16T02:19:33.822Z,20.00
2019-05-16T02:20:33.813Z,20.00
2019-05-16T02:21:33.822Z,20.00
2019-05-16T02:22:38.689Z,20.00
2019-05-16T02:23:33.776Z,20.00
2019-05-16T02:24:33.753Z,20.00
2019-05-16T02:25:34.622Z,20.00
2019-05-16T02:26:34.423Z,20.00
2019-05-16T02:27:33.773Z,20.00
2019-05-16T02:28:40.188Z,20.00
2019-05-16T02:29:34.701Z,20.00
2019-05-16T02:30:33.693Z,20.00
2019-05-16T02:31:33.972Z,20.00
2019-05-16T02:32:33.672Z,20.00
2019-05-16T02:33:34.182Z,20.00
2019-05-16T02:34:33.652Z,20.00
2019-05-16T02:35:33.663Z,20.00
2019-05-16T02:36:33.632Z,20.00
2019-05-16T02:37:35.052Z,20.00
2019-05-16T02:38:33.891Z,20.00
2019-05-16T02:39:33.643Z,20.00
2019-05-16T02:40:33.611Z,20.00
2019-05-16T02:41:33.584Z,20.00
2019-05-16T02:42:34.431Z,20.00
2019-05-16T02:43:33.573Z,20.00
2019-05-16T02:44:33.551Z,20.00
2019-05-16T02:45:33.591Z,20.00
2019-05-16T02:46:33.520Z,20.00
2019-05-16T02:47:35.040Z,20.00
2019-05-16T02:48:35.314Z,20.00
2019-05-16T02:49:34.075Z,20.00
2019-05-16T02:50:33.761Z,20.00
2019-05-16T02:51:33.961Z,20.00
2019-05-16T02:52:33.470Z,20.00
2019-05-16T02:53:33.458Z,20.00
2019-05-16T02:54:33.468Z,16.00
2019-05-16T02:55:33.443Z,20.00
2019-05-16T02:56:33.439Z,20.00
2019-05-16T02:57:33.461Z,20.00
2019-05-16T02:58:33.402Z,20.00
2019-05-16T02:59:33.388Z,20.00
2019-05-16T03:00:33.387Z,28.00
2019-05-16T03:01:33.678Z,28.00
2019-05-16T03:02:33.350Z,28.00
2019-05-16T03:03:33.388Z,28.00
2019-05-16T03:04:33.330Z,28.00
2019-05-16T03:05:33.331Z,28.00
2019-05-16T03:06:33.309Z,32.00
2019-05-16T03:07:41.607Z,28.00
2019-05-16T03:08:34.318Z,32.00
2019-05-16T03:09:33.318Z,32.00
2019-05-16T03:10:33.278Z,36.00
2019-05-16T03:11:33.258Z,32.00
2019-05-16T03:12:33.265Z,36.00
2019-05-16T03:13:33.528Z,24.00
2019-05-16T03:14:34.158Z,28.00
2019-05-16T03:15:34.178Z,28.00
2019-05-16T03:16:33.207Z,28.00
2019-05-16T03:17:33.208Z,32.00
2019-05-16T03:18:33.203Z,36.00
2019-05-16T03:19:33.178Z,36.00
2019-05-16T03:20:33.197Z,40.00
2019-05-16T03:21:33.157Z,44.00
2019-05-16T03:22:33.165Z,44.00
2019-05-16T03:23:33.967Z,48.00
2019-05-16T03:24:33.127Z,52.00
2019-05-16T03:25:33.407Z,56.00
2019-05-16T03:26:33.148Z,60.00
2019-05-16T03:27:33.094Z,52.00
2019-05-16T03:28:33.078Z,56.00
2019-05-16T03:29:33.076Z,60.00
2019-05-16T03:30:34.958Z,64.00
2019-05-16T03:31:34.368Z,68.00
2019-05-16T03:32:34.386Z,72.00
2019-05-16T03:33:41.144Z,80.00
2019-05-16T03:34:35.032Z,84.00
2019-05-16T03:35:34.326Z,92.00
2019-05-16T03:36:34.351Z,96.00
2019-05-16T03:37:50.131Z,104.00
2019-05-16T03:38:34.029Z,116.00
2019-05-16T03:39:32.968Z,124.00
2019-05-16T03:40:32.963Z,132.00
2019-05-16T03:41:32.948Z,136.00
2019-05-16T03:42:32.935Z,132.00
2019-05-16T03:43:32.924Z,136.00
2019-05-16T03:44:33.863Z,136.00
2019-05-16T03:45:32.917Z,144.00
2019-05-16T03:46:32.908Z,148.00
2019-05-16T03:47:32.882Z,156.00
2019-05-16T03:49:54.645Z,168.00
2019-05-16T03:50:54.584Z,180.00
2019-05-16T03:51:54.587Z,192.00
2019-05-16T03:52:56.100Z,204.00
2019-05-16T03:53:54.556Z,220.00
2019-05-16T03:54:54.539Z,236.00
2019-05-16T03:55:54.976Z,252.00
2019-05-16T03:56:54.556Z,264.00
2019-05-16T03:57:54.537Z,272.00
2019-05-16T03:58:54.503Z,280.00
2019-05-16T03:59:54.485Z,280.00
2019-05-16T04:00:55.330Z,280.00
2019-05-16T04:01:54.505Z,288.00
2019-05-16T04:02:54.461Z,296.00
2019-05-16T04:03:54.444Z,320.00
2019-05-16T04:04:54.442Z,356.00
2019-05-16T04:05:54.423Z,396.00
2019-05-16T04:06:54.421Z,444.00
2019-05-16T04:08:10.187Z,488.00
2019-05-16T04:08:55.404Z,532.00
2019-05-16T04:09:54.379Z,572.00
2019-05-16T04:10:54.374Z,612.00
2019-05-16T04:11:54.364Z,648.00
2019-05-16T04:12:54.348Z,684.00
2019-05-16T04:13:54.383Z,716.00
2019-05-16T04:14:54.334Z,752.00
2019-05-16T04:15:54.314Z,784.00
2019-05-16T04:16:54.313Z,816.00
2019-05-16T04:17:54.293Z,844.00
2019-05-16T04:18:54.283Z,872.00
2019-05-16T04:19:54.309Z,900.00
2019-05-16T04:20:54.293Z,944.00
2019-05-16T04:21:54.255Z,1000.00
2019-05-16T04:22:54.252Z,1032.00
2019-05-16T04:23:54.244Z,1052.00
2019-05-16T04:24:54.223Z,1064.00
2019-05-16T04:25:54.552Z,1092.00
2019-05-16T04:26:54.199Z,1140.00
2019-05-16T04:27:54.194Z,1176.00
2019-05-16T04:28:55.155Z,1168.00
2019-05-16T04:29:54.161Z,1132.00
2019-05-16T04:30:54.238Z,1080.00
2019-05-16T04:31:54.194Z,1044.00
2019-05-16T04:32:54.152Z,1028.00
2019-05-16T04:33:54.141Z,1028.00
2019-05-16T04:34:54.200Z,1044.00
2019-05-16T04:35:54.101Z,1092.00
2019-05-16T04:36:54.091Z,1164.00
2019-05-16T04:37:54.419Z,1276.00
2019-05-16T04:38:54.083Z,1412.00
2019-05-16T04:39:54.070Z,1564.00
2019-05-16T04:40:54.062Z,1676.00
2019-05-16T04:41:54.031Z,1696.00
2019-05-16T04:42:54.437Z,1616.00
2019-05-16T04:43:54.051Z,1508.00
2019-05-16T04:44:54.000Z,1412.00
2019-05-16T04:45:53.991Z,1344.00
2019-05-16T04:46:54.012Z,1312.00
2019-05-16T04:47:53.971Z,1344.00
2019-05-16T04:48:53.961Z,1412.00
2019-05-16T04:49:54.268Z,1464.00
2019-05-16T04:50:53.955Z,1484.00
2019-05-16T04:51:53.928Z,1452.00
2019-05-16T04:52:53.939Z,1408.00
2019-05-16T04:53:53.918Z,1380.00
2019-05-16T04:54:53.923Z,1340.00
2019-05-16T04:55:53.929Z,1284.00
2019-05-16T04:56:54.159Z,1212.00
2019-05-16T04:57:53.870Z,1148.00
2019-05-16T04:58:53.851Z,1084.00
2019-05-16T04:59:53.839Z,1036.00
2019-05-16T05:00:53.845Z,1008.00
2019-05-16T05:01:53.972Z,996.00
2019-05-16T05:02:53.812Z,996.00
2019-05-16T05:04:08.774Z,972.00
2019-05-16T05:04:54.788Z,936.00
2019-05-16T05:05:53.789Z,888.00
2019-05-16T05:06:55.771Z,884.00
2019-05-16T05:07:53.918Z,904.00
2019-05-16T05:08:58.362Z,968.00
2019-05-16T05:09:54.749Z,992.00
2019-05-16T05:10:54.124Z,1028.00
2019-05-16T05:11:53.717Z,1072.00
2019-05-16T05:12:53.849Z,1120.00
2019-05-16T05:13:53.737Z,1168.00
2019-05-16T05:14:53.683Z,1208.00
2019-05-16T05:15:53.761Z,1216.00
2019-05-16T05:16:53.683Z,1268.00
2019-05-16T05:17:53.648Z,1360.00
2019-05-16T05:18:53.655Z,1428.00
2019-05-16T05:19:53.723Z,1444.00
2019-05-16T05:20:53.657Z,1456.00
2019-05-16T05:21:53.607Z,1484.00
2019-05-16T05:22:53.606Z,1528.00
2019-05-16T05:23:53.867Z,1552.00
2019-05-16T05:24:53.706Z,1556.00
2019-05-16T05:25:53.617Z,1560.00
2019-05-16T05:26:53.556Z,1584.00
2019-05-16T05:27:53.537Z,1620.00
2019-05-16T05:28:53.526Z,1648.00
2019-05-16T05:29:53.525Z,1636.00
2019-05-16T05:30:53.506Z,1596.00
2019-05-16T05:31:55.449Z,1600.00
2019-05-16T05:32:53.522Z,1636.00
2019-05-16T05:33:53.533Z,1608.00
2019-05-16T05:34:53.895Z,1548.00
2019-05-16T05:35:53.466Z,1548.00
2019-05-16T05:36:53.488Z,1612.00
2019-05-16T05:37:53.545Z,1640.00
2019-05-16T05:39:07.964Z,1708.00
2019-05-16T05:39:54.456Z,1736.00
2019-05-16T05:40:53.818Z,1740.00
2019-05-16T05:41:53.384Z,1812.00
2019-05-16T05:42:53.384Z,1860.00
2019-05-16T05:43:54.554Z,1876.00
2019-05-16T05:44:53.364Z,1872.00
2019-05-16T05:45:54.346Z,1804.00
2019-05-16T05:46:53.600Z,1756.00
2019-05-16T05:47:54.724Z,1672.00
2019-05-16T05:48:54.296Z,1600.00
2019-05-16T05:49:53.458Z,1568.00
2019-05-16T05:50:53.308Z,1632.00
2019-05-16T05:51:53.302Z,1688.00
2019-05-16T05:52:53.291Z,1712.00
2019-05-16T05:53:53.805Z,1668.00
2019-05-16T05:54:53.307Z,1624.00
2019-05-16T05:55:54.125Z,1616.00
2019-05-16T05:56:53.286Z,1648.00
2019-05-16T05:57:53.310Z,1712.00
2019-05-16T05:58:53.297Z,1708.00
2019-05-16T05:59:53.499Z,1780.00
2019-05-16T06:00:53.223Z,1868.00
2019-05-16T06:01:53.275Z,2088.00
2019-05-16T06:02:53.176Z,2268.00
2019-05-16T06:03:53.166Z,2380.00
2019-05-16T06:04:53.153Z,2556.00
2019-05-16T06:05:54.584Z,2736.00
2019-05-16T06:06:53.190Z,2776.00
2019-05-16T06:07:53.173Z,2688.00
2019-05-16T06:08:53.130Z,2728.00
2019-05-16T06:09:56.454Z,2840.00
2019-05-16T06:10:53.089Z,2956.00
2019-05-16T06:11:53.502Z,2984.00
2019-05-16T06:12:53.063Z,3012.00
2019-05-16T06:13:53.768Z,3060.00
2019-05-16T06:14:53.060Z,3084.00
2019-05-16T06:15:53.031Z,3096.00
2019-05-16T06:16:53.027Z,3128.00
2019-05-16T06:17:53.048Z,3140.00
2019-05-16T06:18:53.308Z,3160.00
2019-05-16T06:19:53.769Z,3220.00
2019-05-16T06:20:53.038Z,3232.00
2019-05-16T06:21:52.983Z,3316.00
2019-05-16T06:22:53.374Z,3492.00
2019-05-16T06:23:52.951Z,3608.00
2019-05-16T06:24:52.935Z,3572.00
2019-05-16T06:25:53.041Z,3488.00
2019-05-16T06:26:53.680Z,3520.00
2019-05-16T06:27:52.914Z,3536.00
2019-05-16T06:28:53.746Z,3372.00
2019-05-16T06:29:52.891Z,3260.00
2019-05-16T06:30:52.922Z,3264.00
2019-05-16T06:31:53.718Z,3372.00
2019-05-16T06:32:52.884Z,3512.00
2019-05-16T06:33:52.911Z,3540.00
2019-05-16T06:34:52.863Z,3420.00
2019-05-16T06:35:52.828Z,3284.00
2019-05-16T06:36:52.807Z,3244.00
2019-05-16T06:37:53.253Z,3260.00
2019-05-16T06:38:52.821Z,3416.00
2019-05-16T06:39:52.849Z,3588.00
2019-05-16T06:40:53.067Z,3764.00
2019-05-16T06:41:52.831Z,3868.00
2019-05-16T06:42:53.145Z,3920.00
2019-05-16T06:43:52.789Z,3992.00
2019-05-16T06:44:53.020Z,4064.00
2019-05-16T06:45:52.719Z,4228.00
2019-05-16T06:47:08.637Z,4252.00
2019-05-16T06:47:54.585Z,4264.00
2019-05-16T06:48:53.247Z,4252.00
2019-05-16T06:49:53.349Z,4264.00
2019-05-16T06:50:53.049Z,4200.00
2019-05-16T06:51:53.360Z,4232.00
2019-05-16T06:52:53.997Z,4192.00
2019-05-16T06:53:53.568Z,4120.00
2019-05-16T06:54:53.926Z,4040.00
2019-05-16T06:55:53.349Z,3916.00
2019-05-16T06:56:52.771Z,3776.00
2019-05-16T06:57:57.039Z,3712.00
2019-05-16T06:58:53.419Z,3700.00
2019-05-16T06:59:52.563Z,3708.00
2019-05-16T07:00:52.922Z,3760.00
2019-05-16T07:01:52.659Z,3732.00
2019-05-16T07:02:52.627Z,3708.00
2019-05-16T07:03:52.545Z,3788.00
2019-05-16T07:04:52.607Z,3956.00
2019-05-16T07:05:52.527Z,4112.00
2019-05-16T07:06:58.920Z,4544.00
2019-05-16T07:07:53.616Z,4952.00
2019-05-16T07:08:52.551Z,5208.00
2019-05-16T07:10:00.174Z,5316.00
2019-05-16T07:10:53.454Z,5380.00
2019-05-16T07:11:52.461Z,5464.00
2019-05-16T07:12:52.529Z,5532.00
2019-05-16T07:13:52.469Z,5516.00
2019-05-16T07:14:52.395Z,5532.00
2019-05-16T07:15:52.451Z,5628.00
2019-05-16T07:16:54.560Z,5728.00
2019-05-16T07:17:52.525Z,5516.00
2019-05-16T07:18:52.918Z,5044.00
2019-05-16T07:19:53.215Z,4788.00
2019-05-16T07:20:53.571Z,4628.00
2019-05-16T07:21:52.913Z,4400.00
2019-05-16T07:22:52.439Z,4256.00
2019-05-16T07:23:52.361Z,4080.00
2019-05-16T07:24:52.312Z,3832.00
2019-05-16T07:25:52.339Z,3544.00
2019-05-16T07:26:52.342Z,3276.00
2019-05-16T07:27:52.312Z,3028.00
2019-05-16T07:28:52.761Z,2920.00
2019-05-16T07:29:52.326Z,2980.00
2019-05-16T07:30:52.258Z,3048.00
2019-05-16T07:31:52.610Z,3076.00
2019-05-16T07:32:52.235Z,3140.00
2019-05-16T07:33:52.228Z,3224.00
2019-05-16T07:34:52.193Z,3336.00
2019-05-16T07:35:52.997Z,3484.00
2019-05-16T07:36:53.808Z,3620.00
2019-05-16T07:37:53.042Z,3748.00
2019-05-16T07:38:52.209Z,3872.00
2019-05-16T07:39:52.147Z,3936.00
2019-05-16T07:40:52.643Z,3924.00
2019-05-16T07:41:52.645Z,4012.00
2019-05-16T07:42:53.278Z,4176.00
2019-05-16T07:43:52.446Z,4468.00
2019-05-16T07:44:52.237Z,4608.00
2019-05-16T07:45:53.263Z,4684.00
2019-05-16T07:46:52.234Z,4728.00
2019-05-16T07:47:53.184Z,4852.00
2019-05-16T07:48:52.863Z,4944.00
2019-05-16T07:49:52.100Z,5008.00
2019-05-16T07:50:52.044Z,4964.00
2019-05-16T07:51:52.020Z,4888.00
2019-05-16T07:52:51.993Z,4864.00
2019-05-16T07:53:52.026Z,4940.00
2019-05-16T07:54:51.994Z,5116.00
2019-05-16T07:55:52.062Z,5292.00
2019-05-16T07:56:59.575Z,5228.00
2019-05-16T07:57:53.385Z,4852.00
2019-05-16T07:58:51.955Z,4428.00
2019-05-16T07:59:52.019Z,4216.00
2019-05-16T08:01:01.926Z,4180.00
2019-05-16T08:01:54.331Z,4284.00
2019-05-16T08:02:52.887Z,4464.00
2019-05-16T08:03:53.409Z,4632.00
2019-05-16T08:04:52.642Z,4840.00
2019-05-16T08:05:52.826Z,5036.00
2019-05-16T08:06:51.913Z,5184.00
2019-05-16T08:07:51.934Z,4896.00
2019-05-16T08:08:51.837Z,4656.00
2019-05-16T08:09:51.830Z,4516.00
2019-05-16T08:10:51.792Z,4428.00
2019-05-16T08:11:51.811Z,4440.00
2019-05-16T08:12:52.212Z,4376.00
2019-05-16T08:13:51.829Z,4132.00
2019-05-16T08:14:51.826Z,3836.00
2019-05-16T08:15:51.836Z,3764.00
2019-05-16T08:16:51.753Z,3920.00
2019-05-16T08:17:53.840Z,3956.00
2019-05-16T08:18:51.776Z,3872.00
2019-05-16T08:19:53.441Z,3784.00
2019-05-16T08:20:52.808Z,3692.00
2019-05-16T08:21:51.679Z,3312.00
2019-05-16T08:22:51.700Z,2976.00
2019-05-16T08:23:51.658Z,2904.00
2019-05-16T08:24:51.664Z,2772.00
2019-05-16T08:25:52.065Z,2856.00
2019-05-16T08:26:51.853Z,2972.00
2019-05-16T08:27:52.144Z,3140.00
2019-05-16T08:28:51.601Z,3376.00
2019-05-16T08:29:51.653Z,3300.00
2019-05-16T08:30:53.084Z,3340.00
2019-05-16T08:31:53.199Z,3488.00
2019-05-16T08:32:52.695Z,3980.00
2019-05-16T08:33:53.713Z,4120.00
2019-05-16T08:34:51.779Z,4132.00
2019-05-16T08:35:51.946Z,3972.00
2019-05-16T08:36:52.019Z,3920.00
2019-05-16T08:37:51.755Z,4124.00
2019-05-16T08:38:52.091Z,4188.00
2019-05-16T08:39:52.150Z,4208.00
2019-05-16T08:41:08.019Z,4388.00
2019-05-16T08:41:52.449Z,4424.00
2019-05-16T08:43:53.538Z,4400.00
2019-05-16T08:44:53.579Z,4336.00
2019-05-16T08:45:51.905Z,4248.00
2019-05-16T08:49:52.478Z,4252.00
2019-05-16T08:50:10.992Z,4296.00
2019-05-16T08:50:54.707Z,4064.00
2019-05-16T08:51:53.031Z,3876.00
2019-05-16T08:52:53.250Z,3776.00
2019-05-16T08:53:51.370Z,3548.00
2019-05-16T08:54:51.410Z,3392.00
2019-05-16T08:55:53.805Z,3376.00
2019-05-16T08:56:51.318Z,3368.00
2019-05-16T08:57:53.099Z,3380.00
2019-05-16T08:58:54.356Z,3248.00
2019-05-16T08:59:52.466Z,3100.00
2019-05-16T09:00:55.272Z,3060.00
2019-05-16T09:01:57.668Z,3016.00
2019-05-16T09:02:52.711Z,2984.00
2019-05-16T09:03:52.310Z,2956.00
2019-05-16T09:04:53.462Z,2900.00
2019-05-16T09:05:53.466Z,2848.00
2019-05-16T09:06:52.748Z,2680.00
2019-05-16T09:08:00.481Z,2568.00
2019-05-16T09:08:52.172Z,2504.00
2019-05-16T09:09:52.457Z,2412.00
2019-05-16T09:10:31.815Z,4496.00
2019-05-16T09:10:41.043Z,4344.00
2019-05-16T09:11:01.757Z,2528.00
2019-05-16T09:11:53.015Z,2864.00
2019-05-16T09:12:51.178Z,3136.00
2019-05-16T09:13:51.177Z,3192.00
2019-05-16T09:14:51.980Z,3136.00
2019-05-16T09:15:51.725Z,3152.00
2019-05-16T09:16:51.108Z,3120.00
2019-05-16T09:17:51.475Z,2952.00
2019-05-16T09:18:30.615Z,4248.00
2019-05-16T09:18:51.709Z,2864.00
2019-05-16T09:19:51.116Z,2896.00
2019-05-16T09:20:51.583Z,2912.00
2019-05-16T09:21:51.580Z,2920.00
2019-05-16T09:22:51.017Z,2888.00
2019-05-16T09:23:51.007Z,2844.00
2019-05-16T09:24:51.446Z,2844.00
2019-05-16T09:25:51.108Z,2800.00
2019-05-16T09:26:51.012Z,2764.00
2019-05-16T09:27:50.994Z,2708.00
2019-05-16T09:28:50.965Z,2604.00
2019-05-16T09:29:50.984Z,2480.00
2019-05-16T09:30:50.957Z,2432.00
2019-05-16T09:32:07.824Z,2408.00
2019-05-16T09:32:51.920Z,2404.00
2019-05-16T09:33:50.956Z,2440.00
2019-05-16T09:34:51.556Z,2512.00
2019-05-16T09:35:50.876Z,2648.00
2019-05-16T09:36:51.103Z,2728.00
2019-05-16T09:37:50.956Z,2792.00
2019-05-16T09:38:51.256Z,2796.00
2019-05-16T09:39:51.335Z,2724.00
2019-05-16T09:40:50.837Z,2780.00
2019-05-16T09:41:55.521Z,2816.00
2019-05-16T09:42:51.865Z,2800.00
2019-05-16T09:43:53.237Z,2916.00
2019-05-16T09:44:50.777Z,2884.00
2019-05-16T09:45:50.786Z,2616.00
2019-05-16T09:46:50.817Z,2404.00
2019-05-16T09:47:50.756Z,2412.00
2019-05-16T09:49:11.807Z,2484.00
2019-05-16T09:49:52.344Z,2568.00
2019-05-16T09:50:50.719Z,2700.00
2019-05-16T09:51:51.793Z,2908.00
2019-05-16T09:52:50.695Z,2936.00
2019-05-16T09:53:50.722Z,2768.00
2019-05-16T09:54:50.770Z,2688.00
2019-05-16T09:55:51.832Z,2700.00
2019-05-16T09:56:50.705Z,2720.00
2019-05-16T09:57:50.648Z,2720.00
2019-05-16T09:58:50.641Z,2608.00
2019-05-16T09:59:51.143Z,2440.00
2019-05-16T10:00:51.379Z,2272.00
2019-05-16T10:01:51.896Z,2160.00
2019-05-16T10:02:50.922Z,2232.00
2019-05-16T10:03:50.874Z,2432.00
2019-05-16T10:04:51.051Z,2600.00
2019-05-16T10:05:50.610Z,2816.00
2019-05-16T10:06:50.604Z,3144.00
2019-05-16T10:07:50.558Z,3548.00
2019-05-16T10:08:50.674Z,3908.00
2019-05-16T10:09:51.307Z,4356.00
2019-05-16T10:10:50.693Z,4424.00
2019-05-16T10:12:05.523Z,4696.00
2019-05-16T10:12:51.544Z,4956.00
2019-05-16T10:13:50.464Z,5384.00
2019-05-16T10:14:50.456Z,5744.00
2019-05-16T10:15:50.443Z,5568.00
2019-05-16T10:16:51.091Z,5416.00
2019-05-16T10:17:50.424Z,5480.00
2019-05-16T10:18:53.277Z,5576.00
2019-05-16T10:19:51.598Z,5544.00
2019-05-16T10:20:51.560Z,5424.00
2019-05-16T10:21:51.379Z,5176.00
2019-05-16T10:22:50.786Z,5028.00
2019-05-16T10:23:50.380Z,4952.00
2019-05-16T10:24:51.655Z,4864.00
2019-05-16T10:25:50.442Z,4780.00
2019-05-16T10:26:53.793Z,4848.00
2019-05-16T10:27:50.333Z,4860.00
2019-05-16T10:28:50.652Z,4988.00
2019-05-16T10:29:50.912Z,4932.00
2019-05-16T10:30:50.436Z,4892.00
2019-05-16T10:31:53.309Z,5036.00
2019-05-16T10:32:50.259Z,5500.00
2019-05-16T10:33:50.991Z,5648.00
2019-05-16T10:34:50.310Z,4900.00
2019-05-16T10:35:51.032Z,4872.00
2019-05-16T10:36:50.262Z,5520.00
2019-05-16T10:37:50.983Z,5760.00
2019-05-16T10:38:50.382Z,5384.00
2019-05-16T10:39:50.351Z,5184.00
2019-05-16T10:40:50.797Z,5352.00
2019-05-16T10:41:51.028Z,5448.00
2019-05-16T10:42:50.240Z,5048.00
2019-05-16T10:43:50.189Z,4496.00
2019-05-16T10:44:50.182Z,4588.00
2019-05-16T10:45:50.130Z,4784.00
2019-05-16T10:46:50.478Z,4908.00
2019-05-16T10:47:50.121Z,4732.00
2019-05-16T10:48:51.351Z,4388.00
2019-05-16T10:49:50.089Z,4132.00
2019-05-16T10:50:51.640Z,3932.00
2019-05-16T10:51:50.209Z,3848.00
2019-05-16T10:53:12.907Z,3888.00
2019-05-16T10:54:05.652Z,4072.00
2019-05-16T10:54:58.143Z,4384.00
2019-05-16T10:55:51.036Z,4508.00
2019-05-16T10:56:50.031Z,4316.00
2019-05-16T10:57:50.634Z,4188.00
2019-05-16T10:59:21.596Z,4076.00
2019-05-16T11:00:05.347Z,4076.00
2019-05-16T11:01:15.683Z,4080.00
2019-05-16T11:01:51.550Z,4116.00
2019-05-16T11:02:50.254Z,4172.00
2019-05-16T11:03:51.242Z,4068.00
2019-05-16T11:05:00.190Z,4008.00
2019-05-16T11:06:05.315Z,4000.00
2019-05-16T11:06:52.358Z,4016.00
2019-05-16T11:07:53.334Z,4108.00
2019-05-16T11:08:50.851Z,3996.00
2019-05-16T11:09:58.504Z,3860.00
2019-05-16T11:10:51.532Z,3752.00
2019-05-16T11:11:49.890Z,3752.00
2019-05-16T11:12:55.637Z,3848.00
2019-05-16T11:13:51.708Z,3932.00
2019-05-16T11:14:49.828Z,3860.00
2019-05-16T11:15:50.842Z,3672.00
2019-05-16T11:16:49.799Z,3620.00
2019-05-16T11:17:50.210Z,3620.00
2019-05-16T11:18:49.783Z,3768.00
2019-05-16T11:19:49.784Z,3936.00
2019-05-16T11:20:49.885Z,4096.00
2019-05-16T11:21:50.438Z,4260.00
2019-05-16T11:22:49.796Z,4524.00
2019-05-16T11:23:49.780Z,4524.00
2019-05-16T11:24:49.731Z,4152.00
2019-05-16T11:25:50.211Z,3796.00
2019-05-16T11:26:49.760Z,3560.00
2019-05-16T11:27:49.831Z,3308.00
2019-05-16T11:28:51.094Z,3140.00
2019-05-16T11:29:50.497Z,3160.00
2019-05-16T11:30:51.479Z,3192.00
2019-05-16T11:31:51.481Z,3132.00
2019-05-16T11:32:51.083Z,3132.00
2019-05-16T11:33:51.294Z,3136.00
2019-05-16T11:34:50.030Z,3124.00
2019-05-16T11:35:50.643Z,3144.00
2019-05-16T11:36:49.781Z,3128.00
2019-05-16T11:37:49.586Z,2972.00
2019-05-16T11:38:49.568Z,2868.00
2019-05-16T11:39:50.012Z,2700.00
2019-05-16T11:40:50.448Z,2584.00
2019-05-16T11:41:49.603Z,2576.00
2019-05-16T11:43:05.567Z,2652.00
2019-05-16T11:43:50.582Z,2728.00
2019-05-16T11:44:49.512Z,2748.00
2019-05-16T11:45:49.486Z,2652.00
2019-05-16T11:46:49.507Z,2576.00
2019-05-16T11:47:49.539Z,2528.00
2019-05-16T11:48:49.516Z,2520.00
2019-05-16T11:49:50.383Z,2492.00
2019-05-16T11:50:49.844Z,2484.00
2019-05-16T11:51:49.964Z,2392.00
2019-05-16T11:52:49.423Z,2288.00
2019-05-16T11:53:49.436Z,2228.00
2019-05-16T11:54:49.403Z,2280.00
2019-05-16T11:55:55.582Z,2492.00
2019-05-16T11:56:50.375Z,2752.00
2019-05-16T11:57:49.883Z,2996.00
2019-05-16T11:58:49.355Z,3076.00
2019-05-16T11:59:49.447Z,3036.00
2019-05-16T12:00:49.389Z,2820.00
2019-05-16T12:01:50.340Z,2592.00
2019-05-16T12:02:49.315Z,2564.00
2019-05-16T12:03:49.625Z,2708.00
2019-05-16T12:04:49.298Z,2920.00
2019-05-16T12:05:49.810Z,3120.00
2019-05-16T12:06:50.467Z,3308.00
2019-05-16T12:07:49.553Z,3416.00
2019-05-16T12:08:49.764Z,3640.00
2019-05-16T12:09:55.140Z,3936.00
2019-05-16T12:10:50.378Z,4004.00
2019-05-16T12:11:59.592Z,3796.00
2019-05-16T12:12:50.222Z,3368.00
2019-05-16T12:13:49.214Z,2920.00
2019-05-16T12:14:49.182Z,2572.00
2019-05-16T12:15:50.404Z,2352.00
2019-05-16T12:16:49.296Z,2368.00
2019-05-16T12:18:00.808Z,2372.00
2019-05-16T12:18:50.154Z,2308.00
2019-05-16T12:19:52.731Z,2408.00
2019-05-16T12:20:49.112Z,2432.00
2019-05-16T12:21:49.113Z,2368.00
2019-05-16T12:22:49.171Z,2212.00